Terminal Aerodrome Forecast
Issued by NWS

Home | Current Version | Previous Version | Text Only | Print | Product List | Glossary Off
Versions: 1 2 3 4 5 6 7 8 9 10 11 12 13 14 15 16

000
FTUS43 KMPX 241120
TAFRNH
TAF
KRNH 241120Z 2412/2512 12006KT P6SM OVC015
     FM242100 13012KT P6SM SCT020 BKN040
     FM250300 13008KT P6SM VCTS SCT020 OVC035CB
      TEMPO 2504/2508 2SM +SHRA BR OVC020
     FM250900 16008KT 6SM -SHRA BR OVC015=

USA.gov is the U.S. government's official web portal to all federal, state and local government web resources and services.